sensor_id;sensor_type;location;lat;lon;timestamp;P1;durP1;ratioP1;P2;durP2;ratioP2
4839;SDS011;2434;48.486;7.964;2022-09-24T00:02:16;7.10;;;4.00;;
4839;SDS011;2434;48.486;7.964;2022-09-24T00:04:44;4.20;;;3.80;;
4839;SDS011;2434;48.486;7.964;2022-09-24T00:07:14;5.60;;;4.07;;
4839;SDS011;2434;48.486;7.964;2022-09-24T00:09:42;6.80;;;4.43;;
4839;SDS011;2434;48.486;7.964;2022-09-24T00:12:11;7.53;;;4.17;;
4839;SDS011;2434;48.486;7.964;2022-09-24T00:14:39;8.03;;;4.13;;
4839;SDS011;2434;48.486;7.964;2022-09-24T00:17:07;6.00;;;3.70;;
4839;SDS011;2434;48.486;7.964;2022-09-24T00:19:36;8.63;;;3.50;;
4839;SDS011;2434;48.486;7.964;2022-09-24T00:22:04;4.87;;;3.57;;
4839;SDS011;2434;48.486;7.964;2022-09-24T00:24:34;4.00;;;3.60;;
4839;SDS011;2434;48.486;7.964;2022-09-24T00:27:20;4.00;;;3.60;;
4839;SDS011;2434;48.486;7.964;2022-09-24T00:29:48;3.50;;;3.20;;
4839;SDS011;2434;48.486;7.964;2022-09-24T00:32:17;3.63;;;3.33;;
4839;SDS011;2434;48.486;7.964;2022-09-24T00:34:45;4.57;;;2.80;;
4839;SDS011;2434;48.486;7.964;2022-09-24T00:37:13;3.10;;;2.80;;
4839;SDS011;2434;48.486;7.964;2022-09-24T00:39:43;3.37;;;3.00;;
4839;SDS011;2434;48.486;7.964;2022-09-24T00:42:12;3.43;;;3.10;;
4839;SDS011;2434;48.486;7.964;2022-09-24T00:44:48;4.23;;;3.93;;
4839;SDS011;2434;48.486;7.964;2022-09-24T00:50:17;4.67;;;3.87;;
4839;SDS011;2434;48.486;7.964;2022-09-24T00:52:49;4.23;;;3.83;;
4839;SDS011;2434;48.486;7.964;2022-09-24T00:55:21;4.57;;;3.60;;
4839;SDS011;2434;48.486;7.964;2022-09-24T00:57:51;3.60;;;3.20;;
4839;SDS011;2434;48.486;7.964;2022-09-24T01:00:23;3.70;;;3.40;;
4839;SDS011;2434;48.486;7.964;2022-09-24T01:02:53;3.87;;;3.57;;
4839;SDS011;2434;48.486;7.964;2022-09-24T01:05:26;3.63;;;3.33;;
4839;SDS011;2434;48.486;7.964;2022-09-24T01:07:55;5.20;;;3.40;;
4839;SDS011;2434;48.486;7.964;2022-09-24T01:10:27;7.43;;;3.43;;
4839;SDS011;2434;48.486;7.964;2022-09-24T01:13:32;4.63;;;3.07;;
4839;SDS011;2434;48.486;7.964;2022-09-24T01:16:11;4.93;;;3.57;;
4839;SDS011;2434;48.486;7.964;2022-09-24T01:18:47;3.70;;;3.40;;
4839;SDS011;2434;48.486;7.964;2022-09-24T01:21:22;4.20;;;3.90;;
4839;SDS011;2434;48.486;7.964;2022-09-24T01:24:01;4.53;;;3.23;;
4839;SDS011;2434;48.486;7.964;2022-09-24T01:26:49;4.73;;;4.23;;
4839;SDS011;2434;48.486;7.964;2022-09-24T01:29:32;7.63;;;4.77;;
4839;SDS011;2434;48.486;7.964;2022-09-24T01:32:09;6.00;;;4.20;;
4839;SDS011;2434;48.486;7.964;2022-09-24T01:34:44;6.10;;;4.23;;
4839;SDS011;2434;48.486;7.964;2022-09-24T01:37:17;6.13;;;4.83;;
4839;SDS011;2434;48.486;7.964;2022-09-24T01:39:49;7.13;;;4.00;;
4839;SDS011;2434;48.486;7.964;2022-09-24T01:42:21;5.00;;;4.13;;
4839;SDS011;2434;48.486;7.964;2022-09-24T01:44:54;4.43;;;4.03;;
4839;SDS011;2434;48.486;7.964;2022-09-24T01:47:29;4.30;;;4.00;;
4839;SDS011;2434;48.486;7.964;2022-09-24T01:50:01;4.33;;;3.63;;
4839;SDS011;2434;48.486;7.964;2022-09-24T01:52:33;3.50;;;3.30;;
4839;SDS011;2434;48.486;7.964;2022-09-24T01:55:05;3.37;;;3.07;;
4839;SDS011;2434;48.486;7.964;2022-09-24T01:57:37;6.50;;;4.30;;
4839;SDS011;2434;48.486;7.964;2022-09-24T02:00:12;6.47;;;3.83;;
4839;SDS011;2434;48.486;7.964;2022-09-24T02:02:43;4.30;;;3.90;;
4839;SDS011;2434;48.486;7.964;2022-09-24T02:05:17;6.63;;;4.13;;
4839;SDS011;2434;48.486;7.964;2022-09-24T02:07:51;4.23;;;3.77;;
4839;SDS011;2434;48.486;7.964;2022-09-24T02:10:24;5.43;;;3.57;;
4839;SDS011;2434;48.486;7.964;2022-09-24T02:13:00;3.27;;;3.07;;
4839;SDS011;2434;48.486;7.964;2022-09-24T02:15:34;5.17;;;3.80;;
4839;SDS011;2434;48.486;7.964;2022-09-24T02:18:05;4.17;;;3.77;;
4839;SDS011;2434;48.486;7.964;2022-09-24T02:20:36;3.80;;;3.50;;
4839;SDS011;2434;48.486;7.964;2022-09-24T02:23:08;4.17;;;3.77;;
4839;SDS011;2434;48.486;7.964;2022-09-24T02:25:41;3.80;;;3.40;;
4839;SDS011;2434;48.486;7.964;2022-09-24T02:28:14;5.17;;;3.57;;
4839;SDS011;2434;48.486;7.964;2022-09-24T02:30:45;3.37;;;3.07;;
4839;SDS011;2434;48.486;7.964;2022-09-24T02:33:16;3.50;;;3.20;;
4839;SDS011;2434;48.486;7.964;2022-09-24T02:36:06;4.63;;;3.73;;
4839;SDS011;2434;48.486;7.964;2022-09-24T02:38:34;4.43;;;4.03;;
4839;SDS011;2434;48.486;7.964;2022-09-24T02:41:02;3.80;;;3.23;;
4839;SDS011;2434;48.486;7.964;2022-09-24T02:43:33;4.47;;;4.07;;
4839;SDS011;2434;48.486;7.964;2022-09-24T02:46:03;4.67;;;4.10;;
4839;SDS011;2434;48.486;7.964;2022-09-24T02:48:31;4.33;;;3.93;;
4839;SDS011;2434;48.486;7.964;2022-09-24T02:51:00;4.53;;;4.00;;
4839;SDS011;2434;48.486;7.964;2022-09-24T02:53:29;6.97;;;4.50;;
4839;SDS011;2434;48.486;7.964;2022-09-24T02:55:58;5.40;;;4.10;;
4839;SDS011;2434;48.486;7.964;2022-09-24T02:58:27;3.90;;;3.60;;
4839;SDS011;2434;48.486;7.964;2022-09-24T03:00:56;4.27;;;3.87;;
4839;SDS011;2434;48.486;7.964;2022-09-24T03:03:25;5.90;;;4.23;;
4839;SDS011;2434;48.486;7.964;2022-09-24T03:05:54;5.20;;;4.70;;
4839;SDS011;2434;48.486;7.964;2022-09-24T03:08:23;8.30;;;5.60;;
4839;SDS011;2434;48.486;7.964;2022-09-24T03:10:51;8.63;;;5.90;;
4839;SDS011;2434;48.486;7.964;2022-09-24T03:13:21;5.33;;;4.90;;
4839;SDS011;2434;48.486;7.964;2022-09-24T03:15:50;7.00;;;5.20;;
4839;SDS011;2434;48.486;7.964;2022-09-24T03:18:18;11.30;;;5.87;;
4839;SDS011;2434;48.486;7.964;2022-09-24T03:20:54;5.97;;;5.23;;
4839;SDS011;2434;48.486;7.964;2022-09-24T03:23:23;7.20;;;5.33;;
4839;SDS011;2434;48.486;7.964;2022-09-24T03:25:52;7.17;;;5.00;;
4839;SDS011;2434;48.486;7.964;2022-09-24T03:28:24;6.80;;;4.97;;
4839;SDS011;2434;48.486;7.964;2022-09-24T03:30:52;7.87;;;5.73;;
4839;SDS011;2434;48.486;7.964;2022-09-24T03:33:27;10.03;;;6.03;;
4839;SDS011;2434;48.486;7.964;2022-09-24T03:35:59;7.33;;;5.00;;
4839;SDS011;2434;48.486;7.964;2022-09-24T03:38:29;10.40;;;4.50;;
4839;SDS011;2434;48.486;7.964;2022-09-24T03:40:58;5.80;;;4.97;;
4839;SDS011;2434;48.486;7.964;2022-09-24T03:43:27;4.80;;;4.40;;
4839;SDS011;2434;48.486;7.964;2022-09-24T03:45:56;5.20;;;4.43;;
4839;SDS011;2434;48.486;7.964;2022-09-24T03:48:25;8.73;;;5.77;;
4839;SDS011;2434;48.486;7.964;2022-09-24T03:50:55;10.70;;;5.37;;
4839;SDS011;2434;48.486;7.964;2022-09-24T03:53:25;8.07;;;4.93;;
4839;SDS011;2434;48.486;7.964;2022-09-24T03:55:54;5.90;;;4.93;;
4839;SDS011;2434;48.486;7.964;2022-09-24T03:58:24;7.13;;;5.40;;
4839;SDS011;2434;48.486;7.964;2022-09-24T04:00:52;5.90;;;5.07;;
4839;SDS011;2434;48.486;7.964;2022-09-24T04:03:21;4.70;;;4.33;;
4839;SDS011;2434;48.486;7.964;2022-09-24T04:05:49;7.13;;;5.23;;
4839;SDS011;2434;48.486;7.964;2022-09-24T04:08:18;5.30;;;4.47;;
4839;SDS011;2434;48.486;7.964;2022-09-24T04:10:48;7.23;;;4.57;;
4839;SDS011;2434;48.486;7.964;2022-09-24T04:13:18;6.70;;;5.00;;
4839;SDS011;2434;48.486;7.964;2022-09-24T04:15:46;5.73;;;4.50;;
4839;SDS011;2434;48.486;7.964;2022-09-24T04:18:15;5.07;;;4.57;;
4839;SDS011;2434;48.486;7.964;2022-09-24T04:20:44;6.10;;;5.50;;
4839;SDS011;2434;48.486;7.964;2022-09-24T04:23:13;5.47;;;4.97;;
4839;SDS011;2434;48.486;7.964;2022-09-24T04:25:41;3.83;;;3.53;;
4839;SDS011;2434;48.486;7.964;2022-09-24T04:28:11;4.83;;;4.47;;
4839;SDS011;2434;48.486;7.964;2022-09-24T04:30:40;8.87;;;4.77;;
4839;SDS011;2434;48.486;7.964;2022-09-24T04:33:08;7.93;;;4.57;;
4839;SDS011;2434;48.486;7.964;2022-09-24T04:35:37;6.40;;;4.37;;
4839;SDS011;2434;48.486;7.964;2022-09-24T04:38:05;4.10;;;3.70;;
4839;SDS011;2434;48.486;7.964;2022-09-24T04:40:34;4.27;;;3.60;;
4839;SDS011;2434;48.486;7.964;2022-09-24T04:43:02;3.97;;;3.67;;
4839;SDS011;2434;48.486;7.964;2022-09-24T04:45:33;3.87;;;3.30;;
4839;SDS011;2434;48.486;7.964;2022-09-24T04:48:01;4.50;;;4.10;;
4839;SDS011;2434;48.486;7.964;2022-09-24T04:50:30;4.33;;;3.97;;
4839;SDS011;2434;48.486;7.964;2022-09-24T04:52:59;5.00;;;3.97;;
4839;SDS011;2434;48.486;7.964;2022-09-24T04:55:28;7.73;;;4.00;;
4839;SDS011;2434;48.486;7.964;2022-09-24T04:57:57;6.50;;;3.80;;
4839;SDS011;2434;48.486;7.964;2022-09-24T05:00:26;4.83;;;4.37;;
4839;SDS011;2434;48.486;7.964;2022-09-24T05:02:59;4.63;;;4.27;;
4839;SDS011;2434;48.486;7.964;2022-09-24T05:05:29;5.73;;;3.80;;
4839;SDS011;2434;48.486;7.964;2022-09-24T05:07:59;4.90;;;4.17;;
4839;SDS011;2434;48.486;7.964;2022-09-24T05:10:28;5.90;;;4.10;;
4839;SDS011;2434;48.486;7.964;2022-09-24T05:12:59;8.43;;;3.93;;
4839;SDS011;2434;48.486;7.964;2022-09-24T05:15:27;8.47;;;4.13;;
4839;SDS011;2434;48.486;7.964;2022-09-24T05:17:55;4.30;;;3.90;;
4839;SDS011;2434;48.486;7.964;2022-09-24T05:20:26;4.27;;;3.90;;
4839;SDS011;2434;48.486;7.964;2022-09-24T05:22:54;8.20;;;4.10;;
4839;SDS011;2434;48.486;7.964;2022-09-24T05:25:22;8.83;;;4.00;;
4839;SDS011;2434;48.486;7.964;2022-09-24T05:27:52;3.53;;;3.13;;
4839;SDS011;2434;48.486;7.964;2022-09-24T05:30:21;3.60;;;3.37;;
4839;SDS011;2434;48.486;7.964;2022-09-24T05:32:51;5.17;;;2.90;;
4839;SDS011;2434;48.486;7.964;2022-09-24T05:35:20;4.93;;;2.60;;
4839;SDS011;2434;48.486;7.964;2022-09-24T05:37:51;3.70;;;3.37;;
4839;SDS011;2434;48.486;7.964;2022-09-24T05:40:19;4.63;;;3.33;;
4839;SDS011;2434;48.486;7.964;2022-09-24T05:43:06;3.80;;;3.23;;
4839;SDS011;2434;48.486;7.964;2022-09-24T05:45:35;2.60;;;2.40;;
4839;SDS011;2434;48.486;7.964;2022-09-24T05:48:03;3.47;;;3.17;;
4839;SDS011;2434;48.486;7.964;2022-09-24T05:50:31;2.70;;;2.60;;
4839;SDS011;2434;48.486;7.964;2022-09-24T05:53:02;3.90;;;3.40;;
4839;SDS011;2434;48.486;7.964;2022-09-24T05:55:31;3.70;;;3.40;;
4839;SDS011;2434;48.486;7.964;2022-09-24T05:58:03;4.20;;;3.90;;
4839;SDS011;2434;48.486;7.964;2022-09-24T06:00:33;4.10;;;3.70;;
4839;SDS011;2434;48.486;7.964;2022-09-24T06:03:02;3.87;;;3.57;;
4839;SDS011;2434;48.486;7.964;2022-09-24T06:05:33;3.90;;;3.60;;
4839;SDS011;2434;48.486;7.964;2022-09-24T06:08:03;5.40;;;4.80;;
4839;SDS011;2434;48.486;7.964;2022-09-24T06:10:34;4.60;;;3.77;;
4839;SDS011;2434;48.486;7.964;2022-09-24T06:13:02;3.30;;;3.00;;
4839;SDS011;2434;48.486;7.964;2022-09-24T06:15:31;3.30;;;3.00;;
4839;SDS011;2434;48.486;7.964;2022-09-24T06:18:02;3.87;;;3.43;;
4839;SDS011;2434;48.486;7.964;2022-09-24T06:20:30;3.50;;;3.20;;
4839;SDS011;2434;48.486;7.964;2022-09-24T06:22:59;3.57;;;2.63;;
4839;SDS011;2434;48.486;7.964;2022-09-24T06:25:29;3.27;;;3.07;;
4839;SDS011;2434;48.486;7.964;2022-09-24T06:27:58;6.30;;;3.30;;
4839;SDS011;2434;48.486;7.964;2022-09-24T06:30:28;3.03;;;2.83;;
4839;SDS011;2434;48.486;7.964;2022-09-24T06:33:02;3.90;;;3.30;;
4839;SDS011;2434;48.486;7.964;2022-09-24T06:35:32;9.23;;;3.30;;
4839;SDS011;2434;48.486;7.964;2022-09-24T06:38:01;3.63;;;3.00;;
4839;SDS011;2434;48.486;7.964;2022-09-24T06:40:31;3.87;;;3.40;;
4839;SDS011;2434;48.486;7.964;2022-09-24T06:43:02;3.63;;;3.33;;
4839;SDS011;2434;48.486;7.964;2022-09-24T06:45:32;9.20;;;4.40;;
4839;SDS011;2434;48.486;7.964;2022-09-24T06:48:01;4.80;;;4.30;;
4839;SDS011;2434;48.486;7.964;2022-09-24T06:50:31;4.33;;;3.43;;
4839;SDS011;2434;48.486;7.964;2022-09-24T06:53:03;7.10;;;4.70;;
4839;SDS011;2434;48.486;7.964;2022-09-24T06:55:33;10.27;;;4.03;;
4839;SDS011;2434;48.486;7.964;2022-09-24T06:58:02;5.13;;;4.50;;
4839;SDS011;2434;48.486;7.964;2022-09-24T07:00:32;5.10;;;3.53;;
4839;SDS011;2434;48.486;7.964;2022-09-24T07:03:00;4.77;;;4.37;;
4839;SDS011;2434;48.486;7.964;2022-09-24T07:05:29;6.07;;;4.90;;
4839;SDS011;2434;48.486;7.964;2022-09-24T07:07:57;6.47;;;3.80;;
4839;SDS011;2434;48.486;7.964;2022-09-24T07:10:26;5.57;;;3.90;;
4839;SDS011;2434;48.486;7.964;2022-09-24T07:12:55;7.90;;;4.00;;
4839;SDS011;2434;48.486;7.964;2022-09-24T07:15:23;5.37;;;3.97;;
4839;SDS011;2434;48.486;7.964;2022-09-24T07:17:53;7.57;;;5.20;;
4839;SDS011;2434;48.486;7.964;2022-09-24T07:20:22;5.93;;;4.57;;
4839;SDS011;2434;48.486;7.964;2022-09-24T07:22:53;5.57;;;5.07;;
4839;SDS011;2434;48.486;7.964;2022-09-24T07:25:23;5.70;;;3.70;;
4839;SDS011;2434;48.486;7.964;2022-09-24T07:27:51;5.97;;;3.40;;
4839;SDS011;2434;48.486;7.964;2022-09-24T07:30:21;7.17;;;3.80;;
4839;SDS011;2434;48.486;7.964;2022-09-24T07:32:53;8.13;;;3.70;;
4839;SDS011;2434;48.486;7.964;2022-09-24T07:35:22;5.30;;;4.03;;
4839;SDS011;2434;48.486;7.964;2022-09-24T07:37:57;3.80;;;3.50;;
4839;SDS011;2434;48.486;7.964;2022-09-24T07:40:27;4.43;;;3.80;;
4839;SDS011;2434;48.486;7.964;2022-09-24T07:42:57;4.33;;;3.63;;
4839;SDS011;2434;48.486;7.964;2022-09-24T07:45:27;4.90;;;3.27;;
4839;SDS011;2434;48.486;7.964;2022-09-24T07:47:57;7.10;;;5.37;;
4839;SDS011;2434;48.486;7.964;2022-09-24T07:50:27;9.03;;;6.40;;
4839;SDS011;2434;48.486;7.964;2022-09-24T07:52:57;10.83;;;7.93;;
4839;SDS011;2434;48.486;7.964;2022-09-24T07:55:26;8.73;;;7.80;;
4839;SDS011;2434;48.486;7.964;2022-09-24T07:57:54;13.30;;;8.50;;
4839;SDS011;2434;48.486;7.964;2022-09-24T08:00:22;15.40;;;8.60;;
4839;SDS011;2434;48.486;7.964;2022-09-24T08:02:53;12.40;;;8.47;;
4839;SDS011;2434;48.486;7.964;2022-09-24T08:05:22;12.87;;;8.10;;
4839;SDS011;2434;48.486;7.964;2022-09-24T08:07:50;5.80;;;5.20;;
4839;SDS011;2434;48.486;7.964;2022-09-24T08:10:19;5.47;;;4.03;;
4839;SDS011;2434;48.486;7.964;2022-09-24T08:12:48;7.80;;;4.10;;
4839;SDS011;2434;48.486;7.964;2022-09-24T08:15:16;4.33;;;4.03;;
4839;SDS011;2434;48.486;7.964;2022-09-24T08:17:45;4.80;;;4.13;;
4839;SDS011;2434;48.486;7.964;2022-09-24T08:20:15;3.77;;;3.47;;
4839;SDS011;2434;48.486;7.964;2022-09-24T08:22:43;4.70;;;3.40;;
4839;SDS011;2434;48.486;7.964;2022-09-24T08:25:11;3.23;;;2.80;;
4839;SDS011;2434;48.486;7.964;2022-09-24T08:27:40;2.90;;;2.70;;
4839;SDS011;2434;48.486;7.964;2022-09-24T08:30:08;4.00;;;2.70;;
4839;SDS011;2434;48.486;7.964;2022-09-24T08:32:37;3.57;;;2.67;;
4839;SDS011;2434;48.486;7.964;2022-09-24T08:35:06;2.90;;;2.70;;
4839;SDS011;2434;48.486;7.964;2022-09-24T08:37:36;3.50;;;2.53;;
4839;SDS011;2434;48.486;7.964;2022-09-24T08:40:05;6.43;;;3.00;;
4839;SDS011;2434;48.486;7.964;2022-09-24T08:42:36;3.80;;;3.00;;
4839;SDS011;2434;48.486;7.964;2022-09-24T08:45:10;3.07;;;2.77;;
4839;SDS011;2434;48.486;7.964;2022-09-24T08:47:57;3.43;;;3.13;;
4839;SDS011;2434;48.486;7.964;2022-09-24T08:50:31;4.13;;;3.10;;
4839;SDS011;2434;48.486;7.964;2022-09-24T08:53:09;10.37;;;3.87;;
4839;SDS011;2434;48.486;7.964;2022-09-24T08:55:44;3.03;;;2.83;;
4839;SDS011;2434;48.486;7.964;2022-09-24T09:01:13;3.37;;;3.07;;
4839;SDS011;2434;48.486;7.964;2022-09-24T09:03:50;2.73;;;2.53;;
4839;SDS011;2434;48.486;7.964;2022-09-24T09:06:28;3.90;;;3.37;;
4839;SDS011;2434;48.486;7.964;2022-09-24T09:09:14;3.30;;;3.00;;
4839;SDS011;2434;48.486;7.964;2022-09-24T09:11:45;3.63;;;3.30;;
4839;SDS011;2434;48.486;7.964;2022-09-24T09:14:16;11.53;;;4.27;;
4839;SDS011;2434;48.486;7.964;2022-09-24T09:16:49;4.83;;;2.83;;
4839;SDS011;2434;48.486;7.964;2022-09-24T09:19:20;3.17;;;2.60;;
4839;SDS011;2434;48.486;7.964;2022-09-24T09:21:56;3.00;;;2.70;;
4839;SDS011;2434;48.486;7.964;2022-09-24T09:24:32;3.00;;;2.80;;
4839;SDS011;2434;48.486;7.964;2022-09-24T09:27:09;2.87;;;2.67;;
4839;SDS011;2434;48.486;7.964;2022-09-24T09:29:40;4.27;;;2.70;;
4839;SDS011;2434;48.486;7.964;2022-09-24T09:32:15;3.83;;;2.77;;
4839;SDS011;2434;48.486;7.964;2022-09-24T09:34:57;3.03;;;2.50;;
4839;SDS011;2434;48.486;7.964;2022-09-24T09:37:34;3.60;;;2.50;;
4839;SDS011;2434;48.486;7.964;2022-09-24T09:40:14;3.97;;;2.60;;
4839;SDS011;2434;48.486;7.964;2022-09-24T09:42:58;4.87;;;3.00;;
4839;SDS011;2434;48.486;7.964;2022-09-24T09:45:29;3.07;;;2.87;;
4839;SDS011;2434;48.486;7.964;2022-09-24T09:48:02;3.70;;;3.37;;
4839;SDS011;2434;48.486;7.964;2022-09-24T09:50:32;3.43;;;3.13;;
4839;SDS011;2434;48.486;7.964;2022-09-24T09:53:03;3.60;;;3.30;;
4839;SDS011;2434;48.486;7.964;2022-09-24T09:55:34;3.50;;;3.20;;
4839;SDS011;2434;48.486;7.964;2022-09-24T09:58:10;6.53;;;4.57;;
4839;SDS011;2434;48.486;7.964;2022-09-24T10:00:45;4.23;;;3.83;;
4839;SDS011;2434;48.486;7.964;2022-09-24T10:03:21;5.97;;;4.20;;
4839;SDS011;2434;48.486;7.964;2022-09-24T10:05:56;6.13;;;4.20;;
4839;SDS011;2434;48.486;7.964;2022-09-24T10:08:26;3.60;;;3.30;;
4839;SDS011;2434;48.486;7.964;2022-09-24T10:10:57;3.90;;;3.10;;
4839;SDS011;2434;48.486;7.964;2022-09-24T10:13:27;5.23;;;3.13;;
4839;SDS011;2434;48.486;7.964;2022-09-24T10:15:57;4.03;;;2.67;;
4839;SDS011;2434;48.486;7.964;2022-09-24T10:18:29;8.00;;;3.60;;
4839;SDS011;2434;48.486;7.964;2022-09-24T10:21:00;6.10;;;3.63;;
4839;SDS011;2434;48.486;7.964;2022-09-24T10:23:31;4.57;;;3.83;;
4839;SDS011;2434;48.486;7.964;2022-09-24T10:26:04;4.27;;;3.87;;
4839;SDS011;2434;48.486;7.964;2022-09-24T10:28:33;4.67;;;3.80;;
4839;SDS011;2434;48.486;7.964;2022-09-24T10:31:25;2.80;;;2.60;;
4839;SDS011;2434;48.486;7.964;2022-09-24T10:33:57;3.43;;;3.13;;
4839;SDS011;2434;48.486;7.964;2022-09-24T10:36:27;3.10;;;2.80;;
4839;SDS011;2434;48.486;7.964;2022-09-24T10:39:01;3.30;;;3.00;;
4839;SDS011;2434;48.486;7.964;2022-09-24T10:41:31;3.50;;;3.20;;
4839;SDS011;2434;48.486;7.964;2022-09-24T10:44:02;3.30;;;3.00;;
4839;SDS011;2434;48.486;7.964;2022-09-24T10:46:39;3.37;;;2.80;;
4839;SDS011;2434;48.486;7.964;2022-09-24T10:49:34;3.37;;;3.17;;
4839;SDS011;2434;48.486;7.964;2022-09-24T10:52:17;3.53;;;2.67;;
4839;SDS011;2434;48.486;7.964;2022-09-24T10:55:01;4.43;;;3.00;;
4839;SDS011;2434;48.486;7.964;2022-09-24T10:57:44;3.30;;;3.10;;
4839;SDS011;2434;48.486;7.964;2022-09-24T11:00:22;4.63;;;3.37;;
4839;SDS011;2434;48.486;7.964;2022-09-24T11:05:59;4.07;;;3.03;;
4839;SDS011;2434;48.486;7.964;2022-09-24T11:08:32;2.97;;;2.67;;
4839;SDS011;2434;48.486;7.964;2022-09-24T11:11:16;3.20;;;2.90;;
4839;SDS011;2434;48.486;7.964;2022-09-24T11:13:56;2.97;;;2.73;;
4839;SDS011;2434;48.486;7.964;2022-09-24T11:16:37;4.83;;;3.40;;
4839;SDS011;2434;48.486;7.964;2022-09-24T11:19:25;3.47;;;3.17;;
4839;SDS011;2434;48.486;7.964;2022-09-24T11:22:07;3.60;;;3.20;;
4839;SDS011;2434;48.486;7.964;2022-09-24T11:24:53;5.03;;;3.50;;
4839;SDS011;2434;48.486;7.964;2022-09-24T11:27:38;3.50;;;3.20;;
4839;SDS011;2434;48.486;7.964;2022-09-24T11:30:19;2.60;;;2.40;;
4839;SDS011;2434;48.486;7.964;2022-09-24T11:32:56;2.87;;;2.67;;
4839;SDS011;2434;48.486;7.964;2022-09-24T11:35:49;4.17;;;3.77;;
4839;SDS011;2434;48.486;7.964;2022-09-24T11:38:40;2.77;;;2.53;;
4839;SDS011;2434;48.486;7.964;2022-09-24T11:41:22;5.10;;;2.60;;
4839;SDS011;2434;48.486;7.964;2022-09-24T11:44:07;2.70;;;2.50;;
4839;SDS011;2434;48.486;7.964;2022-09-24T11:47:09;3.40;;;3.10;;
4839;SDS011;2434;48.486;7.964;2022-09-24T11:50:01;4.90;;;3.30;;
4839;SDS011;2434;48.486;7.964;2022-09-24T11:52:42;6.50;;;2.80;;
4839;SDS011;2434;48.486;7.964;2022-09-24T11:55:15;3.57;;;3.23;;
4839;SDS011;2434;48.486;7.964;2022-09-24T11:57:47;3.67;;;3.30;;
4839;SDS011;2434;48.486;7.964;2022-09-24T12:00:20;4.30;;;2.57;;
4839;SDS011;2434;48.486;7.964;2022-09-24T12:02:50;2.70;;;2.60;;
4839;SDS011;2434;48.486;7.964;2022-09-24T12:05:26;4.30;;;2.90;;
4839;SDS011;2434;48.486;7.964;2022-09-24T12:07:58;2.70;;;2.50;;
4839;SDS011;2434;48.486;7.964;2022-09-24T12:10:33;3.00;;;2.70;;
4839;SDS011;2434;48.486;7.964;2022-09-24T12:13:08;3.00;;;2.70;;
4839;SDS011;2434;48.486;7.964;2022-09-24T12:15:47;2.60;;;2.37;;
4839;SDS011;2434;48.486;7.964;2022-09-24T12:18:21;3.13;;;2.90;;
4839;SDS011;2434;48.486;7.964;2022-09-24T12:20:53;4.87;;;2.57;;
4839;SDS011;2434;48.486;7.964;2022-09-24T12:23:28;3.83;;;2.77;;
4839;SDS011;2434;48.486;7.964;2022-09-24T12:25:59;4.13;;;2.77;;
4839;SDS011;2434;48.486;7.964;2022-09-24T12:28:32;2.83;;;2.63;;
4839;SDS011;2434;48.486;7.964;2022-09-24T12:31:25;3.37;;;2.93;;
4839;SDS011;2434;48.486;7.964;2022-09-24T12:34:24;4.80;;;2.40;;
4839;SDS011;2434;48.486;7.964;2022-09-24T12:36:57;2.73;;;2.50;;
4839;SDS011;2434;48.486;7.964;2022-09-24T12:39:32;2.47;;;2.27;;
4839;SDS011;2434;48.486;7.964;2022-09-24T12:42:04;6.90;;;2.13;;
4839;SDS011;2434;48.486;7.964;2022-09-24T12:44:36;2.67;;;2.47;;
4839;SDS011;2434;48.486;7.964;2022-09-24T12:47:18;6.50;;;3.33;;
4839;SDS011;2434;48.486;7.964;2022-09-24T12:49:51;2.70;;;2.30;;
4839;SDS011;2434;48.486;7.964;2022-09-24T12:52:23;3.40;;;3.03;;
4839;SDS011;2434;48.486;7.964;2022-09-24T12:54:54;3.07;;;2.87;;
4839;SDS011;2434;48.486;7.964;2022-09-24T12:57:26;3.40;;;2.60;;
4839;SDS011;2434;48.486;7.964;2022-09-24T12:59:59;2.40;;;2.10;;
4839;SDS011;2434;48.486;7.964;2022-09-24T13:02:29;5.50;;;2.87;;
4839;SDS011;2434;48.486;7.964;2022-09-24T13:05:25;4.10;;;2.43;;
4839;SDS011;2434;48.486;7.964;2022-09-24T13:07:56;2.40;;;2.20;;
4839;SDS011;2434;48.486;7.964;2022-09-24T13:10:27;3.83;;;2.77;;
4839;SDS011;2434;48.486;7.964;2022-09-24T13:12:57;3.63;;;2.10;;
4839;SDS011;2434;48.486;7.964;2022-09-24T13:15:29;2.60;;;2.40;;
4839;SDS011;2434;48.486;7.964;2022-09-24T13:18:00;2.47;;;2.20;;
4839;SDS011;2434;48.486;7.964;2022-09-24T13:20:33;2.53;;;2.43;;
4839;SDS011;2434;48.486;7.964;2022-09-24T13:23:13;2.30;;;2.10;;
4839;SDS011;2434;48.486;7.964;2022-09-24T13:25:57;2.57;;;2.37;;
4839;SDS011;2434;48.486;7.964;2022-09-24T13:28:28;3.27;;;2.47;;
4839;SDS011;2434;48.486;7.964;2022-09-24T13:31:07;6.73;;;2.43;;
4839;SDS011;2434;48.486;7.964;2022-09-24T13:33:50;2.47;;;2.23;;
4839;SDS011;2434;48.486;7.964;2022-09-24T13:36:24;2.77;;;2.57;;
4839;SDS011;2434;48.486;7.964;2022-09-24T13:39:00;2.20;;;2.00;;
4839;SDS011;2434;48.486;7.964;2022-09-24T13:41:36;5.17;;;2.40;;
4839;SDS011;2434;48.486;7.964;2022-09-24T13:44:12;2.50;;;2.30;;
4839;SDS011;2434;48.486;7.964;2022-09-24T13:46:48;1.80;;;1.70;;
4839;SDS011;2434;48.486;7.964;2022-09-24T13:49:20;2.30;;;1.93;;
4839;SDS011;2434;48.486;7.964;2022-09-24T13:51:55;6.63;;;1.73;;
4839;SDS011;2434;48.486;7.964;2022-09-24T13:54:32;2.47;;;2.27;;
4839;SDS011;2434;48.486;7.964;2022-09-24T13:57:08;5.53;;;2.67;;
4839;SDS011;2434;48.486;7.964;2022-09-24T13:59:39;4.27;;;2.40;;
4839;SDS011;2434;48.486;7.964;2022-09-24T14:02:21;2.10;;;2.00;;
4839;SDS011;2434;48.486;7.964;2022-09-24T14:04:54;3.20;;;2.27;;
4839;SDS011;2434;48.486;7.964;2022-09-24T14:07:26;2.17;;;2.00;;
4839;SDS011;2434;48.486;7.964;2022-09-24T14:10:02;2.00;;;1.90;;
4839;SDS011;2434;48.486;7.964;2022-09-24T14:12:33;2.07;;;1.80;;
4839;SDS011;2434;48.486;7.964;2022-09-24T14:15:03;1.67;;;1.57;;
4839;SDS011;2434;48.486;7.964;2022-09-24T14:17:36;1.87;;;1.50;;
4839;SDS011;2434;48.486;7.964;2022-09-24T14:20:05;2.20;;;1.83;;
4839;SDS011;2434;48.486;7.964;2022-09-24T14:22:41;3.40;;;1.93;;
4839;SDS011;2434;48.486;7.964;2022-09-24T14:25:13;2.33;;;1.90;;
4839;SDS011;2434;48.486;7.964;2022-09-24T14:27:45;2.53;;;2.00;;
4839;SDS011;2434;48.486;7.964;2022-09-24T14:30:17;2.27;;;2.10;;
4839;SDS011;2434;48.486;7.964;2022-09-24T14:32:49;5.10;;;2.03;;
4839;SDS011;2434;48.486;7.964;2022-09-24T14:35:20;3.87;;;2.07;;
4839;SDS011;2434;48.486;7.964;2022-09-24T14:37:58;1.93;;;1.73;;
4839;SDS011;2434;48.486;7.964;2022-09-24T14:40:37;3.40;;;2.50;;
4839;SDS011;2434;48.486;7.964;2022-09-24T14:43:13;2.57;;;2.37;;
4839;SDS011;2434;48.486;7.964;2022-09-24T14:45:44;2.60;;;2.40;;
4839;SDS011;2434;48.486;7.964;2022-09-24T14:48:18;1.87;;;1.77;;
4839;SDS011;2434;48.486;7.964;2022-09-24T14:50:58;2.00;;;1.90;;
4839;SDS011;2434;48.486;7.964;2022-09-24T14:53:29;7.40;;;2.73;;
4839;SDS011;2434;48.486;7.964;2022-09-24T14:56:00;6.80;;;2.50;;
4839;SDS011;2434;48.486;7.964;2022-09-24T14:58:34;4.40;;;2.60;;
4839;SDS011;2434;48.486;7.964;2022-09-24T15:01:04;3.00;;;2.70;;
4839;SDS011;2434;48.486;7.964;2022-09-24T15:03:40;3.60;;;2.70;;
4839;SDS011;2434;48.486;7.964;2022-09-24T15:06:15;3.10;;;2.80;;
4839;SDS011;2434;48.486;7.964;2022-09-24T15:08:55;3.73;;;3.10;;
4839;SDS011;2434;48.486;7.964;2022-09-24T15:11:26;3.60;;;2.37;;
4839;SDS011;2434;48.486;7.964;2022-09-24T15:13:57;3.93;;;2.80;;
4839;SDS011;2434;48.486;7.964;2022-09-24T15:16:27;3.10;;;2.80;;
4839;SDS011;2434;48.486;7.964;2022-09-24T15:19:13;3.53;;;2.80;;
4839;SDS011;2434;48.486;7.964;2022-09-24T15:21:45;3.73;;;2.33;;
4839;SDS011;2434;48.486;7.964;2022-09-24T15:24:15;2.87;;;2.67;;
4839;SDS011;2434;48.486;7.964;2022-09-24T15:26:45;3.10;;;2.80;;
4839;SDS011;2434;48.486;7.964;2022-09-24T15:29:16;5.07;;;4.53;;
4839;SDS011;2434;48.486;7.964;2022-09-24T15:31:49;4.70;;;4.30;;
4839;SDS011;2434;48.486;7.964;2022-09-24T15:34:18;4.70;;;2.60;;
4839;SDS011;2434;48.486;7.964;2022-09-24T15:36:47;2.00;;;1.90;;
4839;SDS011;2434;48.486;7.964;2022-09-24T15:39:20;16.67;;;3.87;;
4839;SDS011;2434;48.486;7.964;2022-09-24T15:41:51;34.40;;;5.40;;
4839;SDS011;2434;48.486;7.964;2022-09-24T15:44:20;4.10;;;3.57;;
4839;SDS011;2434;48.486;7.964;2022-09-24T15:46:55;8.73;;;4.40;;
4839;SDS011;2434;48.486;7.964;2022-09-24T15:49:23;4.63;;;4.20;;
4839;SDS011;2434;48.486;7.964;2022-09-24T15:51:52;8.37;;;4.87;;
4839;SDS011;2434;48.486;7.964;2022-09-24T15:54:25;4.20;;;3.80;;
4839;SDS011;2434;48.486;7.964;2022-09-24T15:56:54;7.20;;;4.70;;
4839;SDS011;2434;48.486;7.964;2022-09-24T15:59:22;4.40;;;3.37;;